Time;durP1;ratioP1;P1;durP2;ratioP2;P2;SDS_P1;SDS_P2;PMS_P1;PMS_P2;Temp;Humidity;BMP_temperature;BMP_pressure;BME280_temperature;BME280_humidity;BME280_pressure;Samples;Min_cycle;Max_cycle;Signal;HPM_P1;HPM_P2
2023/12/01 00:02:10;;;;;;;0.05;0.05;;;2.80;99.90;;;;;;5095144;28;20198;-64
2023/12/01 00:04:36;;;;;;;0.32;0.32;;;2.80;99.90;;;;;;5107242;28;20263;-63
2023/12/01 00:07:02;;;;;;;0.30;0.30;;;2.80;99.90;;;;;;5098686;28;20215;-63
2023/12/01 00:09:27;;;;;;;0.00;0.00;;;2.80;99.90;;;;;;5101494;28;20204;-64
2023/12/01 00:11:53;;;;;;;0.22;0.22;;;2.80;99.90;;;;;;5107841;28;20722;-63
2023/12/01 00:14:18;;;;;;;0.00;0.00;;;2.80;99.90;;;;;;5096000;28;20188;-63
2023/12/01 00:16:44;;;;;;;0.05;0.05;;;2.80;99.90;;;;;;5102618;28;20540;-63
2023/12/01 00:19:09;;;;;;;0.00;0.00;;;2.80;99.90;;;;;;5103944;28;20176;-63
2023/12/01 00:21:35;;;;;;;0.00;0.00;;;2.80;99.90;;;;;;5093093;28;20647;-63
2023/12/01 00:24:00;;;;;;;0.00;0.00;;;2.70;99.90;;;;;;5107219;28;20232;-64
2023/12/01 00:26:26;;;;;;;0.00;0.00;;;2.70;99.90;;;;;;5103129;28;20232;-63
2023/12/01 00:28:51;;;;;;;0.00;0.00;;;2.70;99.90;;;;;;5106584;28;20183;-64
2023/12/01 00:31:17;;;;;;;0.10;0.10;;;2.70;99.90;;;;;;5102136;28;20187;-64
2023/12/01 00:33:42;;;;;;;0.00;0.00;;;2.70;99.90;;;;;;5099553;28;20180;-63
2023/12/01 00:36:08;;;;;;;0.10;0.10;;;2.70;99.90;;;;;;5092580;28;20796;-64
2023/12/01 00:38:34;;;;;;;0.00;0.00;;;2.70;99.90;;;;;;5110991;28;20172;-63
2023/12/01 00:41:00;;;;;;;0.10;0.10;;;2.70;99.90;;;;;;5105482;28;20190;-63
2023/12/01 00:43:26;;;;;;;0.20;0.20;;;2.60;99.90;;;;;;5102921;28;20256;-64
2023/12/01 00:45:51;;;;;;;0.00;0.00;;;2.60;99.90;;;;;;5098121;28;20337;-64
2023/12/01 00:48:17;;;;;;;0.00;0.00;;;2.60;99.90;;;;;;5109065;28;20210;-63
2023/12/01 00:50:43;;;;;;;0.05;0.05;;;2.60;99.90;;;;;;5107949;28;20184;-63
2023/12/01 00:53:09;;;;;;;0.00;0.00;;;2.60;99.90;;;;;;5092356;28;20258;-63
2023/12/01 00:55:35;;;;;;;0.00;0.00;;;2.50;99.90;;;;;;5092519;28;20228;-63
2023/12/01 00:58:00;;;;;;;0.00;0.00;;;2.60;99.90;;;;;;5107510;28;20527;-63
2023/12/01 01:00:26;;;;;;;0.00;0.00;;;2.50;99.90;;;;;;5095193;28;20191;-63
2023/12/01 01:02:52;;;;;;;0.00;0.00;;;2.50;99.90;;;;;;5106549;28;20175;-63
2023/12/01 01:05:18;;;;;;;0.00;0.00;;;2.50;99.90;;;;;;5101063;28;20256;-63
2023/12/01 01:07:43;;;;;;;0.00;0.00;;;2.50;99.90;;;;;;5099343;28;20180;-63
2023/12/01 01:10:09;;;;;;;0.00;0.00;;;2.50;99.90;;;;;;5091755;28;20180;-64
2023/12/01 01:12:35;;;;;;;0.35;0.35;;;2.50;99.90;;;;;;5092222;28;20230;-63
2023/12/01 01:15:03;;;;;;;0.05;0.05;;;2.50;99.90;;;;;;5095338;28;20175;-64
2023/12/01 01:17:33;;;;;;;0.05;0.05;;;2.50;99.90;;;;;;5091590;28;20533;-63
2023/12/01 01:20:00;;;;;;;0.00;0.00;;;2.50;99.90;;;;;;5106229;28;20179;-63
2023/12/01 01:22:26;;;;;;;0.00;0.00;;;2.50;99.90;;;;;;5094711;28;20176;-63
2023/12/01 01:24:52;;;;;;;0.17;0.17;;;2.40;99.90;;;;;;5107107;28;20225;-63
2023/12/01 01:27:17;;;;;;;0.10;0.10;;;2.40;99.90;;;;;;5108724;28;20188;-63
2023/12/01 01:29:44;;;;;;;0.00;0.00;;;2.50;99.90;;;;;;5099568;28;20245;-63
2023/12/01 01:32:10;;;;;;;0.00;0.00;;;2.50;99.90;;;;;;5107371;28;20266;-63
2023/12/01 01:34:36;;;;;;;0.00;0.00;;;2.50;99.90;;;;;;5094724;28;20164;-63
2023/12/01 01:37:02;;;;;;;0.15;0.15;;;2.50;99.90;;;;;;5105195;28;20596;-64
2023/12/01 01:39:27;;;;;;;0.10;0.10;;;2.40;99.90;;;;;;5101342;28;20171;-64
2023/12/01 01:41:55;;;;;;;0.32;0.32;;;2.40;99.90;;;;;;5105108;28;20247;-63
2023/12/01 01:44:21;;;;;;;0.80;0.70;;;2.40;99.90;;;;;;5094706;28;20701;-63
2023/12/01 01:46:47;;;;;;;0.00;0.00;;;2.50;99.90;;;;;;5099496;28;20215;-64
2023/12/01 01:49:12;;;;;;;0.00;0.00;;;2.50;99.90;;;;;;5099213;28;20184;-64
2023/12/01 01:51:39;;;;;;;0.00;0.00;;;2.50;99.90;;;;;;5101344;28;20633;-64
2023/12/01 01:54:05;;;;;;;0.00;0.00;;;2.50;99.90;;;;;;5105772;28;20514;-64
2023/12/01 01:56:31;;;;;;;0.00;0.00;;;2.50;99.90;;;;;;5094547;28;20237;-63
2023/12/01 01:58:58;;;;;;;0.00;0.00;;;2.60;99.90;;;;;;5107090;28;20188;-64
2023/12/01 02:01:25;;;;;;;0.00;0.00;;;2.60;99.90;;;;;;5106096;28;20384;-64
2023/12/01 02:03:52;;;;;;;0.00;0.00;;;2.50;99.90;;;;;;5099613;28;20180;-64
2023/12/01 02:06:18;;;;;;;0.00;0.00;;;2.50;99.90;;;;;;5107215;28;20215;-64
2023/12/01 02:08:44;;;;;;;0.10;0.10;;;2.60;99.90;;;;;;5094723;28;20198;-64
2023/12/01 02:11:10;;;;;;;0.00;0.00;;;2.50;99.90;;;;;;5103784;28;20623;-64
2023/12/01 02:13:35;;;;;;;0.30;0.30;;;2.50;99.90;;;;;;5095497;28;20264;-65
2023/12/01 02:16:01;;;;;;;0.00;0.00;;;2.50;99.90;;;;;;5091678;28;20690;-64
2023/12/01 02:18:31;;;;;;;0.00;0.00;;;2.50;99.90;;;;;;5107925;28;20175;-64
2023/12/01 02:20:57;;;;;;;0.10;0.10;;;2.50;99.90;;;;;;5094935;28;20651;-64
2023/12/01 02:23:24;;;;;;;0.03;0.03;;;2.50;99.90;;;;;;5103894;28;20647;-64
2023/12/01 02:25:50;;;;;;;0.30;0.25;;;2.50;99.90;;;;;;5096671;28;20216;-62
2023/12/01 02:28:16;;;;;;;0.00;0.00;;;2.50;99.90;;;;;;5101033;28;20229;-62
2023/12/01 02:30:47;;;;;;;0.00;0.00;;;2.50;99.90;;;;;;5096064;28;20176;-62
2023/12/01 02:33:16;;;;;;;0.00;0.00;;;2.50;99.90;;;;;;5109005;28;20183;-62
2023/12/01 02:35:49;;;;;;;0.00;0.00;;;2.50;99.90;;;;;;5104578;28;20219;-62
2023/12/01 02:38:16;;;;;;;0.00;0.00;;;2.40;99.90;;;;;;5100396;28;20192;-64
2023/12/01 02:40:49;;;;;;;0.10;0.10;;;2.40;99.90;;;;;;5111250;28;20672;-64
2023/12/01 02:43:16;;;;;;;0.55;0.55;;;2.40;99.90;;;;;;5113011;28;20202;-64
2023/12/01 02:45:42;;;;;;;0.00;0.00;;;2.40;99.90;;;;;;5104957;28;20602;-64
2023/12/01 02:48:08;;;;;;;0.30;0.30;;;2.50;99.90;;;;;;5107814;28;20183;-64
2023/12/01 02:50:34;;;;;;;0.22;0.22;;;2.50;99.90;;;;;;5097714;28;20536;-63
2023/12/01 02:53:07;;;;;;;0.00;0.00;;;2.50;99.90;;;;;;5111163;28;20184;-61
2023/12/01 02:55:33;;;;;;;0.00;0.00;;;2.50;99.90;;;;;;5102496;28;20228;-62
2023/12/01 02:57:58;;;;;;;0.00;0.00;;;2.50;99.90;;;;;;5114017;28;20183;-62
2023/12/01 03:00:24;;;;;;;0.00;0.00;;;2.50;99.90;;;;;;5112533;28;20183;-63
2023/12/01 03:02:50;;;;;;;0.00;0.00;;;2.50;99.90;;;;;;5097593;28;20207;-62
2023/12/01 03:05:17;;;;;;;0.00;0.00;;;2.50;99.90;;;;;;5108735;28;20200;-62
2023/12/01 03:07:42;;;;;;;0.00;0.00;;;2.50;99.90;;;;;;5094965;28;20269;-63
2023/12/01 03:10:09;;;;;;;0.08;0.08;;;2.50;99.90;;;;;;5092832;28;20179;-64
2023/12/01 03:12:35;;;;;;;0.00;0.00;;;2.50;99.90;;;;;;5110268;28;20280;-64
2023/12/01 03:15:01;;;;;;;0.00;0.00;;;2.50;99.90;;;;;;5097497;28;20259;-64
2023/12/01 03:17:26;;;;;;;0.10;0.10;;;2.50;99.90;;;;;;5112090;28;20710;-63
2023/12/01 03:19:52;;;;;;;0.00;0.00;;;2.50;99.90;;;;;;5102337;28;20222;-63
2023/12/01 03:22:18;;;;;;;0.00;0.00;;;2.40;99.90;;;;;;5107805;28;20179;-62
2023/12/01 03:24:47;;;;;;;0.35;0.35;;;2.40;99.90;;;;;;5097144;27;20222;-61
2023/12/01 03:27:15;;;;;;;0.15;0.15;;;2.40;99.90;;;;;;5100422;28;20211;-62
2023/12/01 03:29:41;;;;;;;0.28;0.13;;;2.40;99.90;;;;;;5105220;28;20639;-62
2023/12/01 03:32:07;;;;;;;0.00;0.00;;;2.40;99.90;;;;;;5105711;28;20195;-62
2023/12/01 03:34:33;;;;;;;0.20;0.20;;;2.30;99.90;;;;;;5113248;28;20536;-62
2023/12/01 03:36:58;;;;;;;0.15;0.15;;;2.30;99.90;;;;;;5111822;28;20211;-62
2023/12/01 03:39:25;;;;;;;0.00;0.00;;;2.30;99.90;;;;;;5107509;28;20583;-61
2023/12/01 03:41:50;;;;;;;0.10;0.10;;;2.30;99.90;;;;;;5102059;28;20195;-61
2023/12/01 03:44:16;;;;;;;0.00;0.00;;;2.30;99.90;;;;;;5100135;28;20344;-61
2023/12/01 03:46:42;;;;;;;0.00;0.00;;;2.30;99.90;;;;;;5110027;28;20215;-61
2023/12/01 03:49:07;;;;;;;0.00;0.00;;;2.20;99.90;;;;;;5095852;28;20186;-61
2023/12/01 03:51:34;;;;;;;0.00;0.00;;;2.20;99.90;;;;;;5096395;28;20172;-61
2023/12/01 03:53:59;;;;;;;0.10;0.10;;;2.20;99.90;;;;;;5104334;28;20534;-62
2023/12/01 03:56:25;;;;;;;1.13;0.55;;;2.10;99.90;;;;;;5097363;28;20188;-61
2023/12/01 03:58:55;;;;;;;0.00;0.00;;;2.10;99.90;;;;;;5109416;28;20172;-61
2023/12/01 04:01:21;;;;;;;0.00;0.00;;;2.00;99.90;;;;;;5098365;28;20586;-61
2023/12/01 04:03:47;;;;;;;0.13;0.13;;;2.00;99.90;;;;;;5112714;28;20188;-61
2023/12/01 04:06:12;;;;;;;0.00;0.00;;;2.00;99.90;;;;;;5111985;28;20770;-61
2023/12/01 04:08:38;;;;;;;0.00;0.00;;;2.00;99.90;;;;;;5097326;28;20655;-61
2023/12/01 04:11:06;;;;;;;0.10;0.10;;;2.00;99.90;;;;;;5109586;28;20195;-61
2023/12/01 04:13:31;;;;;;;0.00;0.00;;;2.00;99.90;;;;;;5098871;28;20171;-61
2023/12/01 04:15:57;;;;;;;0.10;0.10;;;2.00;99.90;;;;;;5103624;28;20202;-62
2023/12/01 04:18:23;;;;;;;0.10;0.10;;;2.00;99.90;;;;;;5103907;28;20171;-62
2023/12/01 04:20:48;;;;;;;0.00;0.00;;;2.00;99.90;;;;;;5112133;28;20194;-61
2023/12/01 04:23:15;;;;;;;0.00;0.00;;;1.90;99.90;;;;;;5095474;28;20191;-61
2023/12/01 04:25:44;;;;;;;0.00;0.00;;;1.90;99.90;;;;;;5110586;28;20215;-61
2023/12/01 04:28:10;;;;;;;0.32;0.15;;;2.00;99.90;;;;;;5112236;28;20176;-61
2023/12/01 04:30:36;;;;;;;0.10;0.10;;;1.90;99.90;;;;;;5099822;28;20176;-62
2023/12/01 04:33:02;;;;;;;0.00;0.00;;;1.90;99.90;;;;;;5093615;28;20632;-61
2023/12/01 04:35:29;;;;;;;0.00;0.00;;;1.90;99.90;;;;;;5110365;28;20226;-61
2023/12/01 04:37:56;;;;;;;0.43;0.43;;;1.90;99.90;;;;;;5092848;28;20539;-61
2023/12/01 04:40:22;;;;;;;0.17;0.17;;;1.90;99.90;;;;;;5104219;28;20636;-61
2023/12/01 04:42:50;;;;;;;0.00;0.00;;;1.90;99.90;;;;;;5096973;28;20229;-62
2023/12/01 04:45:21;;;;;;;0.13;0.13;;;1.90;99.90;;;;;;5108765;28;20670;-61
2023/12/01 04:47:50;;;;;;;0.10;0.10;;;1.90;99.90;;;;;;5099073;28;20183;-62
2023/12/01 04:50:16;;;;;;;0.00;0.00;;;1.90;99.90;;;;;;5101645;28;20188;-62
2023/12/01 04:52:45;;;;;;;0.00;0.00;;;1.90;99.90;;;;;;5092231;28;20523;-62
2023/12/01 04:55:15;;;;;;;0.00;0.00;;;1.90;99.90;;;;;;5108593;28;20631;-62
2023/12/01 04:57:42;;;;;;;0.00;0.00;;;1.90;99.90;;;;;;5098339;28;20167;-62
2023/12/01 05:00:19;;;;;;;0.00;0.00;;;1.90;99.90;;;;;;5102433;28;20187;-62
2023/12/01 05:02:51;;;;;;;0.00;0.00;;;1.90;99.90;;;;;;5106964;28;20209;-62
2023/12/01 05:05:18;;;;;;;0.10;0.10;;;1.90;99.90;;;;;;5108207;28;20299;-62
2023/12/01 05:07:44;;;;;;;0.20;0.20;;;1.90;99.90;;;;;;5106016;28;20180;-62
2023/12/01 05:10:14;;;;;;;0.00;0.00;;;1.90;99.90;;;;;;5093241;28;20183;-62
2023/12/01 05:12:50;;;;;;;0.00;0.00;;;1.80;99.90;;;;;;5102686;28;20182;-62
2023/12/01 05:15:27;;;;;;;0.00;0.00;;;1.80;99.90;;;;;;5094948;28;20238;-62
2023/12/01 05:17:53;;;;;;;0.38;0.38;;;1.80;99.90;;;;;;5104518;28;20172;-61
2023/12/01 05:20:21;;;;;;;0.05;0.05;;;1.80;99.90;;;;;;5092709;28;20183;-62
2023/12/01 05:22:47;;;;;;;0.15;0.15;;;1.90;99.90;;;;;;5106609;28;20531;-62
2023/12/01 05:25:14;;;;;;;0.00;0.00;;;1.90;99.90;;;;;;5093843;28;20653;-62
2023/12/01 05:27:51;;;;;;;0.00;0.00;;;1.90;99.90;;;;;;5096891;28;20538;-61
2023/12/01 05:30:28;;;;;;;0.08;0.08;;;1.80;99.90;;;;;;5111405;28;20688;-61
2023/12/01 05:32:54;;;;;;;0.00;0.00;;;1.80;99.90;;;;;;5096000;28;20175;-61
2023/12/01 05:35:20;;;;;;;0.00;0.00;;;1.80;99.90;;;;;;5108038;28;20187;-63
2023/12/01 05:37:50;;;;;;;0.10;0.10;;;1.90;99.90;;;;;;5096162;28;20259;-62
2023/12/01 05:40:20;;;;;;;0.03;0.03;;;1.80;99.90;;;;;;5102448;28;20359;-62
2023/12/01 05:42:47;;;;;;;0.00;0.00;;;1.90;99.90;;;;;;5092024;28;20190;-62
2023/12/01 05:45:14;;;;;;;0.00;0.00;;;1.90;99.90;;;;;;5107719;28;20718;-61
2023/12/01 05:47:45;;;;;;;0.10;0.10;;;1.90;99.90;;;;;;5096686;28;20179;-61
2023/12/01 05:50:15;;;;;;;0.05;0.05;;;1.90;99.90;;;;;;5102220;28;20175;-61
2023/12/01 05:52:42;;;;;;;0.08;0.08;;;1.90;99.90;;;;;;5098350;28;20180;-62
2023/12/01 05:55:15;;;;;;;0.25;0.25;;;1.90;99.90;;;;;;5108247;28;20287;-62
2023/12/01 05:57:43;;;;;;;0.00;0.00;;;1.90;99.90;;;;;;5096907;28;20564;-62
2023/12/01 06:00:13;;;;;;;0.00;0.00;;;1.90;99.90;;;;;;5102213;28;20183;-62
2023/12/01 06:02:40;;;;;;;0.00;0.00;;;1.90;99.90;;;;;;5093770;28;20210;-62
2023/12/01 06:05:06;;;;;;;0.00;0.00;;;1.90;99.90;;;;;;5110901;28;20184;-62
2023/12/01 06:07:32;;;;;;;0.10;0.10;;;1.90;99.90;;;;;;5100041;28;20219;-62
2023/12/01 06:09:58;;;;;;;0.00;0.00;;;1.90;99.90;;;;;;5115969;28;20222;-63
2023/12/01 06:12:24;;;;;;;0.40;0.40;;;1.90;99.90;;;;;;5105594;28;20216;-62
2023/12/01 06:14:49;;;;;;;0.20;0.20;;;1.90;99.90;;;;;;5109797;28;20670;-62
2023/12/01 06:17:15;;;;;;;0.55;0.55;;;1.90;99.90;;;;;;5098822;28;20226;-62
2023/12/01 06:19:40;;;;;;;0.00;0.00;;;1.90;99.90;;;;;;5111208;28;20514;-62
2023/12/01 06:22:07;;;;;;;0.43;0.43;;;1.90;99.90;;;;;;5102912;28;20541;-62
2023/12/01 06:24:33;;;;;;;0.00;0.00;;;1.80;99.90;;;;;;5108036;28;20228;-62
2023/12/01 06:27:00;;;;;;;0.10;0.10;;;1.80;99.90;;;;;;5096395;28;20215;-62
2023/12/01 06:29:26;;;;;;;0.55;0.20;;;1.80;99.90;;;;;;5112449;28;20179;-61
2023/12/01 06:31:52;;;;;;;0.28;0.28;;;1.80;99.90;;;;;;5101183;28;20176;-62
2023/12/01 06:34:17;;;;;;;0.20;0.20;;;1.80;99.90;;;;;;5106292;28;20172;-62
2023/12/01 06:36:42;;;;;;;0.10;0.10;;;1.80;99.90;;;;;;5099325;28;20215;-62
2023/12/01 06:39:10;;;;;;;0.38;0.38;;;1.80;99.90;;;;;;5097893;28;20184;-62
2023/12/01 06:41:37;;;;;;;0.73;0.73;;;1.80;99.90;;;;;;5098269;28;20180;-62
2023/12/01 06:44:04;;;;;;;0.15;0.15;;;1.80;99.90;;;;;;5107002;28;20265;-61
2023/12/01 06:46:30;;;;;;;0.22;0.22;;;1.80;99.90;;;;;;5098815;28;20227;-62
2023/12/01 06:48:55;;;;;;;0.10;0.10;;;1.80;99.90;;;;;;5109214;28;20188;-63
2023/12/01 06:51:21;;;;;;;0.00;0.00;;;1.80;99.90;;;;;;5097713;28;20527;-62
2023/12/01 06:53:46;;;;;;;0.00;0.00;;;1.80;99.90;;;;;;5113378;28;20183;-62
2023/12/01 06:56:12;;;;;;;0.10;0.10;;;1.80;99.90;;;;;;5103602;28;20259;-62
2023/12/01 06:58:37;;;;;;;0.00;0.00;;;1.80;99.90;;;;;;5106347;28;20204;-61
2023/12/01 07:01:03;;;;;;;0.93;0.90;;;1.80;99.90;;;;;;5098839;28;20231;-64
2023/12/01 07:03:29;;;;;;;0.00;0.00;;;1.80;99.90;;;;;;5109684;28;20198;-62
2023/12/01 07:05:55;;;;;;;0.20;0.20;;;1.80;99.90;;;;;;5101062;28;20206;-62
2023/12/01 07:08:21;;;;;;;0.20;0.20;;;1.80;99.90;;;;;;5101840;28;20188;-63
2023/12/01 07:10:46;;;;;;;0.00;0.00;;;1.80;99.90;;;;;;5111376;28;20176;-61
2023/12/01 07:13:12;;;;;;;0.00;0.00;;;1.80;99.90;;;;;;5109142;28;20188;-60
2023/12/01 07:15:38;;;;;;;0.00;0.00;;;1.80;99.90;;;;;;5110471;28;20807;-61
2023/12/01 07:18:04;;;;;;;0.13;0.13;;;1.80;99.90;;;;;;5097694;28;20188;-60
2023/12/01 07:20:33;;;;;;;0.22;0.22;;;1.80;99.90;;;;;;5113393;28;20209;-61
2023/12/01 07:22:59;;;;;;;0.10;0.10;;;1.80;99.90;;;;;;5100274;28;20180;-59
2023/12/01 07:25:25;;;;;;;0.05;0.05;;;1.70;99.90;;;;;;5102724;28;20212;-60
2023/12/01 07:27:56;;;;;;;0.00;0.00;;;1.70;99.90;;;;;;5099434;28;20176;-61
2023/12/01 07:30:23;;;;;;;0.00;0.00;;;1.70;99.90;;;;;;5093866;28;20214;-60
2023/12/01 07:32:49;;;;;;;0.00;0.00;;;1.70;99.90;;;;;;5094829;28;20664;-60
2023/12/01 07:35:15;;;;;;;0.00;0.00;;;1.70;99.90;;;;;;5093425;28;20173;-60
2023/12/01 07:37:45;;;;;;;0.00;0.00;;;1.70;99.90;;;;;;5098994;28;20210;-59
2023/12/01 07:40:12;;;;;;;0.00;0.00;;;1.70;99.90;;;;;;5099448;28;20174;-59
2023/12/01 07:42:39;;;;;;;0.10;0.10;;;1.80;99.90;;;;;;5110538;28;20171;-59
2023/12/01 07:45:05;;;;;;;0.25;0.25;;;1.70;99.90;;;;;;5100625;28;20651;-60
2023/12/01 07:47:31;;;;;;;0.00;0.00;;;1.80;99.90;;;;;;5109293;28;20175;-59
2023/12/01 07:49:57;;;;;;;0.43;0.20;;;1.70;99.90;;;;;;5096318;28;20183;-59
2023/12/01 07:52:23;;;;;;;0.15;0.15;;;1.80;99.90;;;;;;5102906;28;20256;-59
2023/12/01 07:54:48;;;;;;;0.30;0.30;;;1.80;99.90;;;;;;5103090;28;20207;-59
2023/12/01 07:57:14;;;;;;;0.20;0.20;;;1.80;99.90;;;;;;5106396;28;20223;-59
2023/12/01 07:59:40;;;;;;;0.43;0.32;;;1.80;99.90;;;;;;5096123;28;20183;-59
2023/12/01 08:02:06;;;;;;;0.08;0.08;;;1.80;99.90;;;;;;5109474;28;20259;-59
2023/12/01 08:04:31;;;;;;;0.10;0.10;;;1.80;99.90;;;;;;5100730;28;20180;-59
2023/12/01 08:06:57;;;;;;;1.10;0.52;;;1.90;99.90;;;;;;5102099;28;20307;-60
2023/12/01 08:09:23;;;;;;;1.23;1.13;;;1.90;99.90;;;;;;5106375;28;20288;-59
2023/12/01 08:11:49;;;;;;;0.00;0.00;;;1.90;99.90;;;;;;5094860;28;20196;-59
2023/12/01 08:14:14;;;;;;;0.00;0.00;;;1.90;99.90;;;;;;5103074;28;20194;-59
2023/12/01 08:16:40;;;;;;;0.10;0.10;;;1.90;99.90;;;;;;5104710;28;20271;-58
2023/12/01 08:19:09;;;;;;;0.20;0.20;;;1.90;99.90;;;;;;5104707;28;20651;-59
2023/12/01 08:21:35;;;;;;;0.00;0.00;;;1.90;99.90;;;;;;5096941;27;20245;-59
2023/12/01 08:24:01;;;;;;;0.10;0.10;;;2.00;99.90;;;;;;5109388;28;20184;-59
2023/12/01 08:26:26;;;;;;;0.00;0.00;;;2.00;99.90;;;;;;5101994;28;20214;-60
2023/12/01 08:28:53;;;;;;;0.15;0.15;;;2.00;99.90;;;;;;5102843;28;20211;-59
2023/12/01 08:31:19;;;;;;;0.10;0.10;;;2.00;99.90;;;;;;5093618;28;20188;-59
2023/12/01 08:33:45;;;;;;;0.25;0.25;;;2.00;99.90;;;;;;5108702;28;20657;-59
2023/12/01 08:36:11;;;;;;;0.30;0.30;;;2.00;99.90;;;;;;5107418;28;20349;-59
2023/12/01 08:38:36;;;;;;;0.20;0.20;;;2.00;99.90;;;;;;5101424;28;20658;-59
2023/12/01 08:41:02;;;;;;;0.45;0.45;;;2.00;99.90;;;;;;5101427;28;20192;-59
2023/12/01 08:43:27;;;;;;;0.20;0.20;;;2.00;99.90;;;;;;5093829;28;20187;-59
2023/12/01 08:45:53;;;;;;;0.10;0.10;;;2.00;99.90;;;;;;5107829;28;20211;-59
2023/12/01 08:48:18;;;;;;;0.00;0.00;;;2.00;99.90;;;;;;5107313;28;20590;-58
2023/12/01 08:50:46;;;;;;;0.10;0.10;;;2.00;99.90;;;;;;5099553;28;20180;-58
2023/12/01 08:53:12;;;;;;;0.00;0.00;;;2.10;99.90;;;;;;5097822;28;20196;-58
2023/12/01 08:55:37;;;;;;;0.00;0.00;;;2.10;99.90;;;;;;5097823;28;20212;-58
2023/12/01 08:58:03;;;;;;;0.30;0.30;;;2.10;99.90;;;;;;5104105;28;20171;-58
2023/12/01 09:00:30;;;;;;;2.30;1.27;;;2.10;99.90;;;;;;5094865;28;20176;-59
2023/12/01 09:02:57;;;;;;;0.10;0.10;;;2.10;99.90;;;;;;5096353;28;20638;-59
2023/12/01 09:05:23;;;;;;;0.00;0.00;;;2.00;99.90;;;;;;5112372;28;20233;-59
2023/12/01 09:07:48;;;;;;;0.20;0.20;;;2.00;99.90;;;;;;5106685;28;20564;-58
2023/12/01 09:10:15;;;;;;;0.10;0.10;;;2.00;99.90;;;;;;5097456;28;20184;-59
2023/12/01 09:12:41;;;;;;;0.00;0.00;;;2.00;99.90;;;;;;5092054;28;20168;-58
2023/12/01 09:15:07;;;;;;;0.05;0.05;;;2.00;99.90;;;;;;5091907;28;20229;-58
2023/12/01 09:17:33;;;;;;;0.10;0.10;;;2.00;99.90;;;;;;5091978;28;20233;-58
2023/12/01 09:19:58;;;;;;;0.00;0.00;;;2.00;99.90;;;;;;5091829;28;20706;-59
2023/12/01 09:22:24;;;;;;;0.03;0.03;;;2.10;99.90;;;;;;5091973;28;20184;-58
2023/12/01 09:24:50;;;;;;;0.00;0.00;;;2.10;99.90;;;;;;5091798;28;20180;-58
2023/12/01 09:27:16;;;;;;;0.28;0.28;;;2.10;99.90;;;;;;5091636;28;20241;-58
2023/12/01 09:29:42;;;;;;;0.10;0.10;;;2.10;99.90;;;;;;5091848;28;20172;-58
2023/12/01 09:32:08;;;;;;;0.10;0.10;;;2.10;99.90;;;;;;5093891;28;20184;-59
2023/12/01 09:34:33;;;;;;;0.10;0.10;;;2.00;99.90;;;;;;5097323;28;20168;-59
2023/12/01 09:37:00;;;;;;;0.15;0.15;;;2.00;99.90;;;;;;5104576;28;20226;-59
2023/12/01 09:39:26;;;;;;;0.22;0.22;;;2.00;99.90;;;;;;5103363;28;20278;-59
2023/12/01 09:41:52;;;;;;;0.20;0.20;;;2.00;99.90;;;;;;5105105;28;20706;-59
2023/12/01 09:44:18;;;;;;;0.00;0.00;;;2.00;99.90;;;;;;5111012;28;20190;-59
2023/12/01 09:46:46;;;;;;;0.00;0.00;;;2.00;99.90;;;;;;5109734;28;20563;-60
2023/12/01 09:49:12;;;;;;;0.22;0.20;;;2.00;99.90;;;;;;5106578;28;20639;-60
2023/12/01 09:51:37;;;;;;;0.10;0.10;;;2.00;99.90;;;;;;5105757;28;20183;-62
2023/12/01 09:54:04;;;;;;;0.10;0.10;;;2.10;99.90;;;;;;5101487;28;20201;-60
2023/12/01 09:56:30;;;;;;;0.38;0.38;;;2.10;99.90;;;;;;5108987;28;20550;-60
2023/12/01 09:58:56;;;;;;;0.00;0.00;;;2.00;99.90;;;;;;5096076;28;20180;-61
2023/12/01 10:01:23;;;;;;;0.15;0.15;;;2.10;99.90;;;;;;5102717;28;20179;-60
2023/12/01 10:03:48;;;;;;;0.10;0.10;;;2.10;99.90;;;;;;5101124;28;20184;-60
2023/12/01 10:06:14;;;;;;;0.00;0.00;;;2.10;99.90;;;;;;5097738;28;20261;-60
2023/12/01 10:08:40;;;;;;;0.00;0.00;;;2.20;99.90;;;;;;5114087;28;20671;-60
2023/12/01 10:11:20;;;;;;;1.67;0.57;;;2.10;99.90;;;;;;5104167;28;20171;-60
2023/12/01 10:13:45;;;;;;;0.00;0.00;;;2.20;99.90;;;;;;5115881;28;20160;-60
2023/12/01 10:16:11;;;;;;;0.00;0.00;;;2.20;99.90;;;;;;5101561;28;20535;-60
2023/12/01 10:18:37;;;;;;;0.00;0.00;;;2.20;99.90;;;;;;5115806;28;20175;-59
2023/12/01 10:21:03;;;;;;;0.00;0.00;;;2.20;99.90;;;;;;5115592;28;20665;-60
2023/12/01 10:23:30;;;;;;;0.00;0.00;;;2.20;99.90;;;;;;5115698;28;20176;-60
2023/12/01 10:25:56;;;;;;;0.08;0.08;;;2.10;99.90;;;;;;5108986;28;20231;-60
2023/12/01 10:28:36;;;;;;;0.10;0.10;;;2.20;99.90;;;;;;5096163;28;20282;-59
2023/12/01 10:31:02;;;;;;;0.10;0.10;;;2.20;99.90;;;;;;5105153;28;20373;-60
2023/12/01 10:33:31;;;;;;;0.10;0.10;;;2.20;99.90;;;;;;5104225;28;20193;-59
2023/12/01 10:36:18;;;;;;;0.03;0.03;;;2.20;99.90;;;;;;5103929;28;20277;-60
2023/12/01 10:38:46;;;;;;;0.20;0.20;;;2.10;99.90;;;;;;5094871;28;20172;-60
2023/12/01 10:41:14;;;;;;;0.20;0.20;;;2.10;99.90;;;;;;5102731;28;20171;-60
2023/12/01 10:43:44;;;;;;;0.00;0.00;;;2.10;99.90;;;;;;5115259;28;20168;-60
2023/12/01 10:46:12;;;;;;;0.00;0.00;;;2.10;99.90;;;;;;5114973;28;20286;-61
2023/12/01 10:48:38;;;;;;;0.08;0.08;;;2.10;99.90;;;;;;5115053;28;20171;-59
2023/12/01 10:51:05;;;;;;;0.35;0.35;;;2.10;99.90;;;;;;5113113;28;20198;-60
2023/12/01 10:53:31;;;;;;;0.47;0.47;;;2.10;99.90;;;;;;5105491;28;20194;-59
2023/12/01 10:56:01;;;;;;;0.20;0.20;;;2.10;99.90;;;;;;5094513;28;20695;-60
2023/12/01 10:58:30;;;;;;;0.00;0.00;;;2.10;99.90;;;;;;5094549;28;20176;-59
2023/12/01 11:00:59;;;;;;;0.00;0.00;;;2.20;99.90;;;;;;5094527;28;20180;-59
2023/12/01 11:03:31;;;;;;;0.32;0.32;;;2.20;99.90;;;;;;5094573;28;20222;-59
2023/12/01 11:06:06;;;;;;;0.30;0.30;;;2.20;99.90;;;;;;5094293;28;20683;-60
2023/12/01 11:08:50;;;;;;;0.00;0.00;;;2.20;99.90;;;;;;5094417;28;20176;-59
2023/12/01 11:11:43;;;;;;;0.10;0.10;;;2.10;99.90;;;;;;5094250;28;20176;-60
2023/12/01 11:14:09;;;;;;;0.03;0.03;;;2.10;99.90;;;;;;5094470;28;20181;-61
2023/12/01 11:16:35;;;;;;;0.10;0.10;;;2.20;99.90;;;;;;5094328;28;20234;-60
2023/12/01 11:19:00;;;;;;;0.10;0.10;;;2.20;99.90;;;;;;5094392;28;20176;-61
2023/12/01 11:21:26;;;;;;;0.20;0.20;;;2.20;99.90;;;;;;5094098;28;20245;-60
2023/12/01 11:23:52;;;;;;;0.15;0.15;;;2.20;99.90;;;;;;5093908;28;20293;-60
2023/12/01 11:26:18;;;;;;;0.20;0.20;;;2.20;99.90;;;;;;5103293;28;20228;-60
2023/12/01 11:28:46;;;;;;;0.10;0.10;;;2.20;99.90;;;;;;5114494;28;20623;-60
2023/12/01 11:31:21;;;;;;;0.00;0.00;;;2.20;99.90;;;;;;5095192;28;20551;-60
2023/12/01 11:33:56;;;;;;;0.17;0.17;;;2.20;99.90;;;;;;5093969;28;20178;-60
2023/12/01 11:36:29;;;;;;;0.00;0.00;;;2.30;99.90;;;;;;5093790;28;20273;-60
2023/12/01 11:39:14;;;;;;;0.35;0.35;;;2.20;99.90;;;;;;5094042;28;20169;-60
2023/12/01 11:41:42;;;;;;;0.00;0.00;;;2.20;99.90;;;;;;5105415;28;20248;-59
2023/12/01 11:44:26;;;;;;;0.08;0.08;;;2.20;99.90;;;;;;5101649;28;20172;-60
2023/12/01 11:46:57;;;;;;;0.00;0.00;;;2.30;99.90;;;;;;5108107;28;20211;-59
2023/12/01 11:49:33;;;;;;;0.15;0.15;;;2.30;99.90;;;;;;5113884;28;20175;-59
2023/12/01 11:52:03;;;;;;;0.00;0.00;;;2.20;99.90;;;;;;5110953;28;20187;-59
2023/12/01 11:54:35;;;;;;;0.00;0.00;;;2.20;99.90;;;;;;5108409;28;20233;-60
2023/12/01 11:57:02;;;;;;;0.10;0.10;;;2.20;99.90;;;;;;5095063;28;20183;-59
2023/12/01 11:59:28;;;;;;;0.10;0.10;;;2.20;99.90;;;;;;5104548;28;20733;-60
2023/12/01 12:01:54;;;;;;;0.00;0.00;;;2.30;99.90;;;;;;5101045;28;20179;-59
2023/12/01 12:04:20;;;;;;;0.47;0.25;;;2.30;99.90;;;;;;5100835;28;20172;-60
2023/12/01 12:06:46;;;;;;;0.28;0.28;;;2.30;99.90;;;;;;5105148;28;20219;-59
2023/12/01 12:09:17;;;;;;;0.10;0.10;;;2.30;99.90;;;;;;5098020;28;20176;-59
2023/12/01 12:11:53;;;;;;;0.00;0.00;;;2.20;99.90;;;;;;5107308;28;20207;-59
2023/12/01 12:14:21;;;;;;;0.00;0.00;;;2.20;99.90;;;;;;5099985;28;20179;-59
2023/12/01 12:16:47;;;;;;;0.00;0.00;;;2.20;99.90;;;;;;5108880;28;20187;-59
2023/12/01 12:19:12;;;;;;;0.10;0.10;;;2.20;99.90;;;;;;5109317;28;20234;-59
2023/12/01 12:21:38;;;;;;;0.25;0.25;;;2.10;99.90;;;;;;5099283;28;20186;-59
2023/12/01 12:24:05;;;;;;;0.10;0.10;;;2.10;99.90;;;;;;5102976;28;20186;-59
2023/12/01 12:26:31;;;;;;;0.00;0.00;;;2.10;99.90;;;;;;5096426;28;20204;-59
2023/12/01 12:29:02;;;;;;;0.25;0.25;;;2.10;99.90;;;;;;5093400;28;20183;-59
2023/12/01 12:31:36;;;;;;;0.20;0.20;;;2.10;99.90;;;;;;5108126;28;20180;-59
2023/12/01 12:34:04;;;;;;;0.08;0.08;;;2.10;99.90;;;;;;5102619;28;20232;-60
2023/12/01 12:36:31;;;;;;;0.00;0.00;;;2.10;99.90;;;;;;5098969;28;20583;-60
2023/12/01 12:39:03;;;;;;;0.00;0.00;;;2.10;99.90;;;;;;5109007;28;20207;-60
2023/12/01 12:41:32;;;;;;;0.00;0.00;;;2.00;99.90;;;;;;5097207;28;20199;-60
2023/12/01 12:44:04;;;;;;;0.35;0.35;;;2.00;99.90;;;;;;5104260;28;20176;-60
2023/12/01 12:46:31;;;;;;;0.10;0.10;;;2.00;99.90;;;;;;5092866;28;20215;-60
2023/12/01 12:48:59;;;;;;;0.00;0.00;;;2.00;99.90;;;;;;5108646;28;20635;-58
2023/12/01 12:51:26;;;;;;;0.40;0.40;;;2.00;99.90;;;;;;5108611;28;20648;-59
2023/12/01 12:53:53;;;;;;;0.00;0.00;;;2.00;99.90;;;;;;5098906;28;20171;-59
2023/12/01 12:56:21;;;;;;;0.00;0.00;;;2.00;99.90;;;;;;5101829;28;20182;-59
2023/12/01 12:58:47;;;;;;;0.40;0.40;;;2.10;99.90;;;;;;5104705;28;20175;-58